Time;durP1;ratioP1;P1;durP2;ratioP2;P2;SDS_P1;SDS_P2;PMS_P1;PMS_P2;Temp;Humidity;BMP_temperature;BMP_pressure;BME280_temperature;BME280_humidity;BME280_pressure;Samples;Min_cycle;Max_cycle;Signal;HPM_P1;HPM_P2
2021/11/08 00:01:12;;;;;;;16.45;2.40;;;;;;;-142.75;100.00;77816.53;5013395;28;20566;-71
2021/11/08 00:03:41;;;;;;;15.85;1.90;;;;;;;-142.75;100.00;77822.44;5008790;28;20092;-69
2021/11/08 00:06:06;;;;;;;15.73;2.67;;;;;;;-142.75;100.00;77818.50;4990173;28;20065;-70
2021/11/08 00:08:33;;;;;;;15.32;2.38;;;;;;;-142.75;100.00;77832.28;5009031;28;20058;-69
2021/11/08 00:10:59;;;;;;;15.20;2.50;;;;;;;-142.75;100.00;77834.25;5033327;22;20423;-67
2021/11/08 00:13:25;;;;;;;17.27;2.53;;;;;;;-142.75;100.00;77826.38;5009047;28;20025;-67
2021/11/08 00:18:30;;;;;;;12.50;3.00;;;;;;;-142.75;100.00;77832.28;5029791;28;20029;-67
2021/11/08 00:20:56;;;;;;;10.52;2.20;;;;;;;-142.75;100.00;77836.22;5026321;28;20466;-67
2021/11/08 00:23:23;;;;;;;15.80;2.25;;;;;;;-142.75;100.00;77867.72;5028642;28;20025;-67
2021/11/08 00:25:48;;;;;;;12.32;2.63;;;;;;;-142.75;100.00;77857.88;5028337;28;20021;-66
2021/11/08 00:28:17;;;;;;;20.58;2.70;;;;;;;-142.75;100.00;77846.06;5028963;28;20028;-66
2021/11/08 00:30:43;;;;;;;15.32;2.10;;;;;;;-142.75;100.00;77826.38;5027577;28;20037;-67
2021/11/08 00:33:15;;;;;;;11.40;2.55;;;;;;;-142.75;100.00;77814.56;5028315;28;20037;-68
2021/11/08 00:35:41;;;;;;;14.93;2.15;;;;;;;-142.75;100.00;77814.56;5019954;28;20029;-67
2021/11/08 00:38:07;;;;;;;12.85;2.00;;;;;;;-142.75;100.00;77863.78;5010362;28;20014;-67
2021/11/08 00:40:33;;;;;;;16.73;2.47;;;;;;;-142.75;100.00;77893.31;5027351;28;20029;-67
2021/11/08 00:42:59;;;;;;;15.98;2.38;;;;;;;-142.75;100.00;77905.13;5026090;28;20025;-67
2021/11/08 00:45:24;;;;;;;16.58;2.45;;;;;;;-142.75;100.00;77915.00;5008348;28;20029;-67
2021/11/08 00:47:50;;;;;;;11.65;2.10;;;;;;;-142.75;100.00;77913.03;5028789;28;20434;-67
2021/11/08 00:50:15;;;;;;;14.20;2.47;;;;;;;-142.75;100.00;77924.84;5027652;28;20021;-67
2021/11/08 00:52:42;;;;;;;19.58;2.53;;;;;;;-142.75;100.00;77934.69;5028061;28;20495;-66
2021/11/08 00:55:07;;;;;;;15.07;2.20;;;;;;;-142.75;100.00;77940.59;5027984;28;20029;-67
2021/11/08 00:57:34;;;;;;;16.98;1.98;;;;;;;-142.75;100.00;77958.31;5027710;28;20095;-67
2021/11/08 01:00:00;;;;;;;13.18;2.88;;;;;;;-142.75;100.00;77954.38;4989631;28;20479;-67
2021/11/08 01:02:28;;;;;;;;;;;;;;;-142.75;100.00;77936.66;5025770;28;20027;-66
2021/11/08 01:04:54;;;;;;;11.25;2.15;;;;;;;-142.75;100.00;77948.47;5027869;28;19912;-67
2021/11/08 01:07:20;;;;;;;12.50;2.00;;;;;;;-142.75;100.00;77944.53;5027642;28;20052;-66
2021/11/08 01:09:46;;;;;;;18.30;2.42;;;;;;;-142.75;100.00;77956.34;5027255;28;20029;-66
2021/11/08 01:12:12;;;;;;;18.08;2.38;;;;;;;-142.75;100.00;77964.22;5027767;28;20027;-67
2021/11/08 01:14:38;;;;;;;17.52;2.35;;;;;;;-142.75;100.00;77981.94;5027587;28;20486;-67
2021/11/08 01:17:04;;;;;;;18.75;2.50;;;;;;;-142.75;100.00;77987.84;5027656;28;20398;-67
2021/11/08 01:19:31;;;;;;;11.63;2.95;;;;;;;-142.75;100.00;77974.06;5028517;28;20032;-67
2021/11/08 01:22:16;;;;;;;20.08;2.75;;;;;;;-142.75;100.00;77964.22;5008947;28;20039;-67
2021/11/08 01:24:46;;;;;;;13.80;2.55;;;;;;;-142.75;100.00;77968.16;5009818;28;20025;-67
2021/11/08 01:27:11;;;;;;;17.27;2.45;;;;;;;-142.75;100.00;77970.13;5027761;28;20519;-67
2021/11/08 01:29:37;;;;;;;17.63;2.15;;;;;;;-142.75;100.00;77976.03;5027208;28;20099;-67
2021/11/08 01:32:06;;;;;;;12.23;1.80;;;;;;;-142.75;100.00;77974.06;5026622;28;20040;-67
2021/11/08 01:34:32;;;;;;;19.90;2.85;;;;;;;-142.75;100.00;77960.28;5027122;28;20287;-67
2021/11/08 01:37:00;;;;;;;16.27;2.47;;;;;;;-142.75;100.00;77952.41;5027316;28;20021;-67
2021/11/08 01:39:33;;;;;;;21.98;2.35;;;;;;;-142.75;100.00;77946.50;5027113;28;20414;-67
2021/11/08 01:42:02;;;;;;;18.00;2.25;;;;;;;-142.75;100.00;77938.63;5026494;28;20022;-66
2021/11/08 01:44:28;;;;;;;10.40;2.30;;;;;;;-142.75;100.00;77915.00;5009429;28;20116;-67
2021/11/08 01:46:58;;;;;;;13.85;2.00;;;;;;;-142.75;100.00;77930.75;5027251;28;20028;-67
2021/11/08 01:49:25;;;;;;;14.07;2.35;;;;;;;-142.75;100.00;77960.28;5010403;28;20021;-67
2021/11/08 01:51:51;;;;;;;15.98;3.33;;;;;;;-142.75;100.00;77974.06;5026367;28;20017;-66
2021/11/08 01:54:18;;;;;;;11.20;2.38;;;;;;;-142.75;100.00;77960.28;5027473;28;20075;-67
2021/11/08 01:56:44;;;;;;;;;;;;;;;-142.75;100.00;77950.44;4994661;28;20029;-67
2021/11/08 01:59:10;;;;;;;16.95;2.72;;;;;;;-142.75;100.00;77946.50;5006483;28;19928;-67
2021/11/08 02:01:36;;;;;;;17.52;2.42;;;;;;;-142.75;100.00;77930.75;5019987;28;20461;-67
2021/11/08 02:04:01;;;;;;;11.88;2.05;;;;;;;-142.75;100.00;77938.63;5027204;28;20025;-67
2021/11/08 02:06:27;;;;;;;14.77;2.72;;;;;;;-142.75;100.00;77928.78;5027035;28;20029;-67
2021/11/08 02:08:52;;;;;;;14.35;1.90;;;;;;;-142.75;100.00;77913.03;5028296;28;20079;-68
2021/11/08 02:11:21;;;;;;;11.45;2.67;;;;;;;-142.75;100.00;77922.88;5012600;28;20021;-67
2021/11/08 02:13:48;;;;;;;12.68;1.75;;;;;;;-142.75;100.00;77932.72;5031273;28;20079;-67
2021/11/08 02:16:15;;;;;;;10.13;2.33;;;;;;;-142.75;100.00;77920.91;5030968;28;20037;-67
2021/11/08 02:18:41;;;;;;;9.03;2.10;;;;;;;-142.75;100.00;77930.75;5014272;28;20025;-67
2021/11/08 02:21:09;;;;;;;13.48;2.03;;;;;;;-142.75;100.00;77915.00;5012190;28;20407;-67
2021/11/08 02:23:36;;;;;;;19.67;2.47;;;;;;;-142.75;100.00;77922.88;5013320;28;20376;-66
2021/11/08 02:26:05;;;;;;;17.50;2.50;;;;;;;-142.75;100.00;77911.06;5030714;28;20025;-67
2021/11/08 02:28:31;;;;;;;14.02;2.70;;;;;;;-142.75;100.00;77905.13;5016940;28;20038;-67
2021/11/08 02:30:57;;;;;;;11.07;2.40;;;;;;;-142.75;100.00;77930.75;5010224;28;20045;-68
2021/11/08 02:33:25;;;;;;;11.93;2.33;;;;;;;-142.75;100.00;77962.25;5011028;28;20511;-67
2021/11/08 02:35:52;;;;;;;14.80;2.17;;;;;;;-142.75;100.00;77960.28;5011045;28;20024;-66
2021/11/08 02:38:27;;;;;;;12.48;2.30;;;;;;;-142.75;100.00;77956.34;5011222;28;20033;-67
2021/11/08 02:40:58;;;;;;;14.82;2.00;;;;;;;-142.75;100.00;77970.13;5010073;28;20034;-67
2021/11/08 02:43:25;;;;;;;18.13;2.63;;;;;;;-142.75;100.00;77976.03;5010642;28;20072;-67
2021/11/08 02:46:15;;;;;;;13.77;2.42;;;;;;;-142.75;100.00;77954.38;5010789;28;20041;-66
2021/11/08 02:48:43;;;;;;;13.63;2.17;;;;;;;-142.75;100.00;77948.47;5011585;28;20104;-67
2021/11/08 02:51:21;;;;;;;10.93;2.20;;;;;;;-142.75;100.00;77948.47;5009896;28;20096;-67
2021/11/08 02:53:50;;;;;;;18.85;2.47;;;;;;;-142.75;100.00;77944.53;5010989;28;20045;-67
2021/11/08 02:56:16;;;;;;;17.08;2.40;;;;;;;-142.75;100.00;77936.66;5010922;28;20060;-67
2021/11/08 02:58:44;;;;;;;12.90;2.30;;;;;;;-142.75;100.00;77940.59;5010573;28;20054;-66
2021/11/08 03:01:15;;;;;;;18.98;3.25;;;;;;;-142.75;100.00;77968.16;5009433;28;20147;-67
2021/11/08 03:03:46;;;;;;;12.27;2.25;;;;;;;-142.75;100.00;77968.16;4992893;28;20029;-67
2021/11/08 03:08:40;;;;;;;15.90;2.70;;;;;;;-142.75;100.00;77978.00;5024353;28;20037;-66
2021/11/08 03:11:06;;;;;;;17.17;3.00;;;;;;;-142.75;100.00;77974.06;5028846;28;20048;-67
2021/11/08 03:13:34;;;;;;;19.73;2.50;;;;;;;-142.75;100.00;77974.06;5029864;28;20037;-67
2021/11/08 03:16:19;;;;;;;13.05;2.60;;;;;;;-142.75;100.00;77964.22;5029803;28;20387;-67
2021/11/08 03:18:45;;;;;;;15.82;2.55;;;;;;;-142.75;100.00;77968.16;5013488;28;20129;-67
2021/11/08 03:21:19;;;;;;;17.85;2.67;;;;;;;-142.75;100.00;77972.09;5028654;28;20451;-67
2021/11/08 03:23:47;;;;;;;18.10;2.92;;;;;;;-142.75;100.00;77979.97;5012257;28;20032;-67
2021/11/08 03:26:27;;;;;;;18.35;2.50;;;;;;;-142.75;100.00;77979.97;5011966;28;20025;-67
2021/11/08 03:28:53;;;;;;;16.90;3.80;;;;;;;-142.75;100.00;77985.88;5029679;28;20087;-66
2021/11/08 03:31:18;;;;;;;13.95;2.30;;;;;;;-142.75;100.00;77993.75;5011264;28;20112;-66
2021/11/08 03:33:45;;;;;;;21.17;3.30;;;;;;;-142.75;100.00;77987.84;5029766;28;20112;-67
2021/11/08 03:36:11;;;;;;;15.13;2.90;;;;;;;-142.75;100.00;77999.66;5029417;28;20482;-67
2021/11/08 03:38:38;;;;;;;15.95;3.25;;;;;;;-142.75;100.00;77997.69;5029218;28;20053;-67
2021/11/08 03:41:04;;;;;;;15.67;3.37;;;;;;;-142.75;100.00;77999.66;5028457;28;20021;-67
2021/11/08 03:43:30;;;;;;;12.67;2.03;;;;;;;-142.75;100.00;77995.72;5011656;28;20076;-66
2021/11/08 03:45:56;;;;;;;11.05;2.53;;;;;;;-142.75;100.00;77999.66;5029284;28;20100;-67
2021/11/08 03:48:21;;;;;;;;;;;;;;;-142.75;100.00;77991.78;5030396;28;20490;-66
2021/11/08 03:50:48;;;;;;;14.60;2.42;;;;;;;-142.75;100.00;77991.78;5028740;28;19960;-66
2021/11/08 03:53:14;;;;;;;14.05;2.20;;;;;;;-142.75;100.00;78003.59;5029459;28;20043;-66
2021/11/08 03:55:40;;;;;;;;;;;;;;;-142.75;100.00;78015.41;5029595;28;20026;-67
2021/11/08 03:58:06;;;;;;;13.07;2.37;;;;;;;-142.75;100.00;78031.16;5029246;28;20008;-67
2021/11/08 04:00:32;;;;;;;14.57;2.63;;;;;;;-142.75;100.00;78027.22;5028161;28;20028;-67
2021/11/08 04:02:59;;;;;;;10.40;2.23;;;;;;;-142.75;100.00;78027.22;5029000;28;20455;-66
2021/11/08 04:05:28;;;;;;;15.52;2.15;;;;;;;-142.75;100.00;78035.09;5011063;28;20036;-66
2021/11/08 04:07:54;;;;;;;16.63;2.53;;;;;;;-142.75;100.00;78042.97;5011061;28;20108;-66
2021/11/08 04:10:20;;;;;;;9.88;2.15;;;;;;;-142.75;100.00;78027.22;5028212;28;20116;-67
2021/11/08 04:12:48;;;;;;;18.00;3.13;;;;;;;-142.75;100.00;78031.16;5029150;28;20137;-67
2021/11/08 04:15:18;;;;;;;10.23;2.95;;;;;;;-142.75;100.00;78048.88;5028857;28;20479;-67
2021/11/08 04:17:45;;;;;;;17.20;3.00;;;;;;;-142.75;100.00;78041.00;5004136;28;20033;-66
2021/11/08 04:20:19;;;;;;;13.13;3.15;;;;;;;-142.75;100.00;78029.19;5029033;28;20037;-67
2021/11/08 04:22:46;;;;;;;15.60;2.83;;;;;;;-142.75;100.00;78023.28;5029021;28;20028;-67
2021/11/08 04:25:13;;;;;;;16.67;2.72;;;;;;;-142.75;100.00;78021.31;5028646;28;20031;-67
2021/11/08 04:27:39;;;;;;;17.05;3.55;;;;;;;-142.75;100.00;78046.91;5028522;28;20083;-67
2021/11/08 04:30:06;;;;;;;15.90;2.95;;;;;;;-142.75;100.00;78048.88;5027653;28;20117;-67
2021/11/08 04:32:37;;;;;;;20.52;2.72;;;;;;;-142.75;100.00;78062.69;5027675;28;20029;-67
2021/11/08 04:35:09;;;;;;;16.67;3.00;;;;;;;-142.75;100.00;78048.88;5028494;28;20026;-67
2021/11/08 04:40:13;;;;;;;17.98;2.97;;;;;;;-142.75;100.00;78070.56;5027514;28;20037;-67
2021/11/08 04:43:32;;;;;;;14.93;2.57;;;;;;;-142.75;100.00;78072.53;5028274;28;20052;-67
2021/11/08 05:28:06;;;;;;;12.65;3.03;;;;;;;-142.75;100.00;78088.28;5008085;28;20041;-67
2021/11/08 05:30:32;;;;;;;15.60;3.15;;;;;;;-142.75;100.00;78100.09;5007148;28;20021;-67
2021/11/08 05:32:57;;;;;;;10.27;2.55;;;;;;;-142.75;100.00;78094.19;5007492;28;20018;-66
2021/11/08 05:35:23;;;;;;;16.75;3.00;;;;;;;-142.75;100.00;78100.09;5019322;28;20028;-67
2021/11/08 05:37:48;;;;;;;14.75;2.28;;;;;;;-142.75;100.00;78078.44;5027555;28;20021;-67
2021/11/08 05:40:19;;;;;;;10.10;2.35;;;;;;;-142.75;100.00;78086.31;5025111;28;20029;-66
2021/11/08 05:42:45;;;;;;;11.63;2.70;;;;;;;-142.75;100.00;78086.31;5017468;28;20026;-66
2021/11/08 05:45:14;;;;;;;16.13;3.10;;;;;;;-142.75;100.00;78070.56;5016795;28;20027;-66
2021/11/08 05:47:39;;;;;;;14.35;2.28;;;;;;;-142.75;100.00;78084.34;5027196;28;20140;-67
2021/11/08 05:50:07;;;;;;;11.48;3.22;;;;;;;-142.75;100.00;78106.00;5027328;28;20117;-66
2021/11/08 05:52:34;;;;;;;13.85;2.08;;;;;;;-142.75;100.00;78107.97;5026083;28;20068;-67
2021/11/08 05:54:59;;;;;;;14.43;2.92;;;;;;;-142.75;100.00;78090.25;5024426;28;20029;-67
2021/11/08 05:57:41;;;;;;;11.23;2.53;;;;;;;-142.75;100.00;78090.25;5007649;28;20017;-67
2021/11/08 06:51:38;;;;;;;17.83;3.03;;;;;;;-142.75;100.00;78058.72;5027192;28;20026;-70
2021/11/08 06:54:04;;;;;;;16.77;2.40;;;;;;;-142.75;100.00;78044.94;5033326;28;20028;-68
2021/11/08 06:56:35;;;;;;;19.02;3.08;;;;;;;-142.75;100.00;78044.94;5029759;28;20053;-70
2021/11/08 06:59:03;;;;;;;16.80;2.95;;;;;;;-142.75;100.00;78050.84;5043294;28;20464;-69
2021/11/08 07:01:29;;;;;;;18.30;3.03;;;;;;;-142.75;100.00;78044.94;5044955;28;20083;-69
2021/11/08 07:03:54;;;;;;;17.40;2.92;;;;;;;-142.75;100.00;78048.88;5045648;28;20028;-69
2021/11/08 07:06:20;;;;;;;18.30;3.20;;;;;;;-142.75;100.00;78056.78;5020298;28;20025;-68
2021/11/08 07:08:45;;;;;;;17.08;2.97;;;;;;;-142.75;100.00;78058.72;5050060;28;20029;-71
2021/11/08 07:11:11;;;;;;;24.13;2.88;;;;;;;-142.75;100.00;78058.72;5028455;28;20017;-71
2021/11/08 07:13:36;;;;;;;22.15;3.38;;;;;;;-142.75;100.00;78046.91;5016792;28;20021;-69
2021/11/08 07:16:01;;;;;;;21.20;3.40;;;;;;;-142.75;100.00;78054.81;5049187;28;20021;-70
2021/11/08 07:18:27;;;;;;;18.17;2.97;;;;;;;-142.75;100.00;78052.81;5020298;28;20021;-69
2021/11/08 07:20:52;;;;;;;24.57;4.03;;;;;;;-142.75;100.00;78066.63;5026473;28;20037;-69
2021/11/08 07:23:18;;;;;;;16.00;3.38;;;;;;;-142.75;100.00;78066.63;5041287;28;20299;-69
2021/11/08 07:25:44;;;;;;;17.52;3.15;;;;;;;-142.75;100.00;78070.56;5040679;28;20044;-69
2021/11/08 07:28:11;;;;;;;15.48;3.42;;;;;;;-142.75;100.00;78066.63;5037661;28;20391;-68
2021/11/08 07:30:40;;;;;;;17.83;3.08;;;;;;;-142.75;100.00;78056.78;5029888;28;20029;-68
2021/11/08 07:33:05;;;;;;;11.88;3.08;;;;;;;-142.75;100.00;78066.63;5014113;28;20030;-69
2021/11/08 07:35:31;;;;;;;12.65;2.92;;;;;;;-142.75;100.00;78060.72;5041991;28;20763;-69
2021/11/08 07:37:56;;;;;;;17.98;4.15;;;;;;;-142.75;100.00;78060.72;5031963;28;20041;-69
2021/11/08 07:40:21;;;;;;;14.30;3.70;;;;;;;-142.75;100.00;78070.56;5012181;28;20028;-69
2021/11/08 07:42:49;;;;;;;17.25;3.50;;;;;;;-142.75;100.00;78074.50;5042749;28;20099;-68
2021/11/08 07:45:14;;;;;;;15.40;3.60;;;;;;;-142.75;100.00;78058.72;5032659;28;20022;-69
2021/11/08 07:47:39;;;;;;;22.20;3.70;;;;;;;-142.75;100.00;78066.63;5025872;28;20021;-69
2021/11/08 07:50:05;;;;;;;18.17;3.38;;;;;;;-142.75;100.00;78062.69;5030460;28;20029;-69
2021/11/08 07:52:32;;;;;;;17.40;3.50;;;;;;;-142.75;100.00;78046.91;5040721;28;20025;-69
2021/11/08 07:54:57;;;;;;;16.63;3.47;;;;;;;-142.75;100.00;78021.31;5021749;28;20040;-68
2021/11/08 07:57:22;;;;;;;21.55;3.30;;;;;;;-142.75;100.00;77991.78;5047505;28;20048;-68
2021/11/08 07:59:48;;;;;;;18.73;3.83;;;;;;;-142.75;100.00;77954.38;5033039;28;20086;-70
2021/11/08 08:02:14;;;;;;;21.77;3.65;;;;;;;-142.75;100.00;77905.13;5029146;28;20312;-69
2021/11/08 08:04:39;;;;;;;20.95;3.83;;;;;;;-142.75;100.00;77871.66;5036961;28;20030;-69
2021/11/08 08:07:05;;;;;;;23.63;4.18;;;;;;;-142.75;100.00;77846.06;5031857;28;20024;-69
2021/11/08 08:09:30;;;;;;;18.70;4.30;;;;;;;-142.75;100.00;77810.63;5036067;28;20438;-69
2021/11/08 08:11:56;;;;;;;12.93;3.47;;;;;;;-142.75;100.00;77790.94;5040185;28;20322;-69
2021/11/08 08:14:21;;;;;;;20.15;4.93;;;;;;;-142.75;100.00;77824.41;5018748;28;20025;-68
2021/11/08 08:16:47;;;;;;;18.80;3.75;;;;;;;-142.75;100.00;77830.31;5038807;28;20032;-69
2021/11/08 08:19:13;;;;;;;20.27;4.45;;;;;;;-142.75;100.00;77828.34;5030970;28;20363;-68
2021/11/08 08:21:38;;;;;;;;;;;;;;;-142.75;100.00;77867.72;5029020;28;20025;-68
2021/11/08 08:24:04;;;;;;;22.80;5.20;;;;;;;-142.75;100.00;77853.94;5029114;28;19936;-68
2021/11/08 08:26:32;;;;;;;;;;;;;;;-142.75;100.00;77844.09;5029862;28;20025;-69
2021/11/08 08:29:03;;;;;;;22.80;4.03;;;;;;;-142.75;100.00;77800.78;5011613;28;19995;-69
2021/11/08 08:31:29;;;;;;;23.55;4.57;;;;;;;-142.75;100.00;77771.25;5029009;28;20017;-69
2021/11/08 08:33:54;;;;;;;;;;;;;;;-142.75;100.00;77759.44;5032785;28;20037;-71
2021/11/08 08:36:19;;;;;;;13.32;4.28;;;;;;;-142.75;100.00;77757.47;5029545;28;19920;-71
2021/11/08 08:38:45;;;;;;;18.67;4.30;;;;;;;-142.75;100.00;77739.75;5011824;28;20502;-69
2021/11/08 08:41:10;;;;;;;19.45;4.65;;;;;;;-142.75;100.00;77725.97;5028412;28;20072;-71
2021/11/08 08:43:36;;;;;;;13.90;3.80;;;;;;;-142.75;100.00;77696.41;5029381;28;20036;-68
2021/11/08 08:46:01;;;;;;;25.13;4.10;;;;;;;-142.75;100.00;77680.66;5029390;28;20034;-69
2021/11/08 08:48:30;;;;;;;16.75;3.80;;;;;;;-142.75;100.00;77660.97;5029279;28;20037;-70
2021/11/08 08:50:55;;;;;;;15.38;3.35;;;;;;;-142.75;99.34;77639.31;5032001;28;20364;-70
2021/11/08 08:53:21;;;;;;;21.48;3.20;;;;;;;-142.75;98.45;77601.91;5049087;28;20032;-71
2021/11/08 08:55:46;;;;;;;15.57;3.47;;;;;;;-142.75;94.90;77562.53;5049241;28;20025;-69
2021/11/08 08:58:12;;;;;;;18.27;3.58;;;;;;;-142.75;92.20;77529.06;5048897;28;20021;-70
2021/11/08 09:00:42;;;;;;;21.50;3.50;;;;;;;-142.75;91.04;77481.81;5038171;28;20033;-70
2021/11/08 09:03:07;;;;;;;22.85;4.18;;;;;;;-142.75;88.30;77424.69;5048404;28;20020;-69
2021/11/08 09:05:33;;;;;;;25.20;4.03;;;;;;;-142.75;86.48;77405.00;5009980;28;20052;-68
2021/11/08 09:07:58;;;;;;;;;;;;;;;-142.75;83.67;77365.63;5035031;28;20059;-69
2021/11/08 09:10:30;;;;;;;18.92;3.83;;;;;;;-142.75;83.49;77342.00;5027714;28;19921;-70
2021/11/08 09:12:56;;;;;;;21.33;3.67;;;;;;;-142.75;81.96;77316.41;5011002;28;20028;-69
2021/11/08 09:15:24;;;;;;;19.48;4.35;;;;;;;-142.75;77.72;77284.91;5035784;28;20114;-69
2021/11/08 09:17:49;;;;;;;19.90;3.80;;;;;;;-142.75;77.95;77286.88;5039789;28;20033;-70
2021/11/08 09:20:15;;;;;;;18.55;3.50;;;;;;;-142.75;77.04;77318.38;5034225;28;20032;-72
2021/11/08 09:22:43;;;;;;;;;;;;;;;-142.75;77.44;77373.50;5038834;28;20033;-70
2021/11/08 09:25:11;;;;;;;18.35;3.95;;;;;;;-142.75;81.03;77418.78;5037092;28;19917;-70
2021/11/08 09:27:37;;;;;;;25.77;3.58;;;;;;;-142.75;81.70;77444.38;5022493;28;20159;-69
2021/11/08 09:30:04;;;;;;;24.38;3.72;;;;;;;-142.75;82.37;77464.09;5037844;28;20499;-70
2021/11/08 09:32:30;;;;;;;21.77;3.78;;;;;;;-142.75;83.14;77521.19;5026587;28;20021;-70
2021/11/08 09:34:55;;;;;;;16.20;3.75;;;;;;;-142.75;84.90;77538.91;5039750;28;20392;-69
2021/11/08 09:37:21;;;;;;;;;;;;;;;-142.75;86.90;77566.47;5036242;28;20020;-71
2021/11/08 09:39:46;;;;;;;14.70;3.92;;;;;;;-142.75;88.59;77594.03;5021564;28;19924;-70
2021/11/08 09:42:14;;;;;;;;;;;;;;;-142.75;88.61;77596.00;5037755;28;20025;-70
2021/11/08 09:44:40;;;;;;;16.33;3.03;;;;;;;-142.75;87.07;77582.22;5033315;28;19956;-70
2021/11/08 09:47:07;;;;;;;21.17;4.03;;;;;;;-142.75;87.55;77578.28;5036018;28;20036;-70
2021/11/08 09:49:34;;;;;;;15.00;3.33;;;;;;;-142.75;87.85;77578.28;5042901;28;20585;-69
2021/11/08 09:52:00;;;;;;;22.48;4.75;;;;;;;-142.75;86.80;77574.34;5037987;28;20394;-71
2021/11/08 09:54:28;;;;;;;;;;;;;;;-142.75;86.67;77564.50;5022884;28;20024;-71
2021/11/08 09:56:58;;;;;;;19.52;3.78;;;;;;;-142.75;85.62;77564.50;5019174;28;19919;-71
2021/11/08 09:59:25;;;;;;;20.15;3.38;;;;;;;-142.75;86.13;77578.28;5017679;28;20459;-70
2021/11/08 10:01:51;;;;;;;21.88;3.60;;;;;;;-142.75;85.36;77584.19;5033144;28;20021;-71
2021/11/08 10:04:20;;;;;;;18.60;3.47;;;;;;;-142.75;84.06;77544.81;5041154;28;20021;-70
2021/11/08 10:06:48;;;;;;;11.93;2.58;;;;;;;-142.75;81.02;77548.75;5018534;28;20534;-70
2021/11/08 10:09:18;;;;;;;16.13;2.80;;;;;;;-142.75;80.87;77580.25;5015768;28;20083;-71
2021/11/08 10:11:46;;;;;;;14.90;3.22;;;;;;;-142.75;81.00;77568.44;5010879;28;20013;-70
2021/11/08 10:14:12;;;;;;;19.17;2.47;;;;;;;-142.75;81.05;77542.84;5042104;28;20029;-70
2021/11/08 10:16:38;;;;;;;;;;;;;;;-142.75;81.46;77534.97;5033810;28;20037;-70
2021/11/08 10:19:07;;;;;;;17.48;2.75;;;;;;;-142.75;80.57;77527.09;5031240;28;19952;-70
2021/11/08 10:21:44;;;;;;;15.60;2.55;;;;;;;-142.75;80.86;77544.81;5030293;28;20486;-70
2021/11/08 10:24:14;;;;;;;15.20;2.63;;;;;;;-142.75;80.65;77527.09;5016120;28;20036;-71
2021/11/08 10:26:39;;;;;;;16.70;3.00;;;;;;;-142.75;79.98;77534.97;5035189;28;20053;-70
2021/11/08 10:29:09;;;;;;;18.58;2.97;;;;;;;-142.75;79.99;77536.94;5038656;28;20059;-70
2021/11/08 10:31:44;;;;;;;10.98;2.63;;;;;;;-142.75;80.21;77550.72;5048517;28;20021;-71
2021/11/08 10:34:11;;;;;;;16.08;2.30;;;;;;;-142.75;79.63;77536.94;5042289;28;20421;-72
2021/11/08 10:36:37;;;;;;;17.17;2.55;;;;;;;-142.75;79.16;77533.00;5028806;28;20033;-70
2021/11/08 10:39:06;;;;;;;15.52;2.58;;;;;;;-142.75;79.83;77548.75;5037496;28;20029;-70
2021/11/08 10:41:36;;;;;;;17.23;2.78;;;;;;;-142.75;79.25;77546.78;5041123;28;20028;-69
2021/11/08 10:44:15;;;;;;;13.82;2.53;;;;;;;-142.75;79.32;77564.50;5045583;28;20077;-69
2021/11/08 10:46:47;;;;;;;14.02;2.72;;;;;;;-142.75;79.72;77568.44;5017698;28;20081;-70
2021/11/08 10:49:16;;;;;;;20.02;3.50;;;;;;;-142.75;79.05;77550.72;5036846;28;20553;-70
2021/11/08 10:51:45;;;;;;;15.52;2.78;;;;;;;-142.75;79.84;77562.53;5037554;28;20025;-71
2021/11/08 10:54:14;;;;;;;14.35;2.22;;;;;;;-142.75;79.85;77572.38;5044512;28;20493;-71
2021/11/08 10:56:47;;;;;;;14.93;2.65;;;;;;;-142.75;80.77;77566.47;5041417;28;20502;-71
2021/11/08 10:59:17;;;;;;;13.75;2.83;;;;;;;-142.75;80.27;77554.66;5020808;28;20029;-70
2021/11/08 11:01:44;;;;;;;15.27;3.08;;;;;;;-142.75;79.35;77542.84;5046268;28;20021;-71
2021/11/08 11:04:11;;;;;;;13.25;2.38;;;;;;;-142.75;78.28;77580.25;5041765;28;20021;-71
2021/11/08 11:06:46;;;;;;;11.43;2.40;;;;;;;-142.75;77.92;77568.44;5033148;28;20025;-69
2021/11/08 11:09:21;;;;;;;14.80;2.30;;;;;;;-142.75;78.77;77574.34;5042627;28;20398;-70
2021/11/08 11:11:49;;;;;;;13.10;2.17;;;;;;;-142.75;79.41;77588.13;5032481;28;20075;-72
2021/11/08 11:14:15;;;;;;;12.98;2.53;;;;;;;-142.75;78.88;77607.81;5022932;28;20104;-71
2021/11/08 11:16:46;;;;;;;13.00;2.45;;;;;;;-142.75;78.94;77615.69;5037064;28;20068;-71
2021/11/08 11:19:15;;;;;;;11.75;2.03;;;;;;;-142.75;78.59;77625.53;5036949;28;20052;-69
2021/11/08 11:21:58;;;;;;;14.07;2.30;;;;;;;-142.75;79.72;77623.56;5022084;28;20040;-70
2021/11/08 11:24:41;;;;;;;12.27;2.30;;;;;;;-142.75;78.44;77615.69;5039370;28;20021;-71
2021/11/08 11:27:11;;;;;;;14.77;2.72;;;;;;;-142.75;78.65;77615.69;5028810;28;20382;-70
2021/11/08 11:29:36;;;;;;;15.25;2.28;;;;;;;-142.75;79.07;77633.41;5025965;28;20029;-71
2021/11/08 11:32:02;;;;;;;15.20;2.70;;;;;;;-142.75;79.75;77639.31;5039799;28;20020;-69
2021/11/08 11:34:29;;;;;;;10.00;2.05;;;;;;;-142.75;80.11;77627.50;5039462;28;20025;-70
2021/11/08 11:36:54;;;;;;;12.55;2.35;;;;;;;-142.75;80.60;77617.66;5036140;28;20029;-70
2021/11/08 11:39:20;;;;;;;11.77;2.13;;;;;;;-142.75;79.81;77625.53;5015745;28;20086;-71
2021/11/08 11:41:48;;;;;;;8.73;1.90;;;;;;;-142.75;80.37;77621.59;5040583;28;20289;-70
2021/11/08 11:44:23;;;;;;;14.18;2.92;;;;;;;-142.75;80.14;77633.41;5032637;28;20509;-70
2021/11/08 11:46:53;;;;;;;13.73;2.45;;;;;;;-142.75;80.07;77641.28;5041492;28;20069;-71
2021/11/08 11:49:20;;;;;;;13.68;2.50;;;;;;;-142.75;80.70;77627.50;5048240;28;20025;-70
2021/11/08 11:51:49;;;;;;;15.73;2.20;;;;;;;-142.75;81.72;77633.41;5023501;28;20021;-70
2021/11/08 11:54:17;;;;;;;13.48;2.58;;;;;;;-142.75;80.14;77674.75;5040500;28;20032;-70
2021/11/08 11:56:44;;;;;;;14.25;2.70;;;;;;;-142.75;80.97;77662.94;5015383;28;20025;-71
2021/11/08 11:59:12;;;;;;;16.38;2.72;;;;;;;-142.75;81.21;77666.88;5016852;28;20036;-71
2021/11/08 12:01:38;;;;;;;14.50;2.28;;;;;;;-142.75;81.81;77662.94;5043933;28;20091;-70
2021/11/08 12:04:05;;;;;;;19.20;2.22;;;;;;;-142.75;81.79;77672.78;5018006;28;20395;-71
2021/11/08 12:06:35;;;;;;;14.52;2.95;;;;;;;-142.75;80.51;77676.72;5040090;28;20038;-71
2021/11/08 12:09:05;;;;;;;13.93;2.15;;;;;;;-142.75;80.95;77657.03;5042037;28;20035;-72
2021/11/08 12:11:45;;;;;;;17.77;2.55;;;;;;;-142.75;80.81;77649.16;5060446;22;20388;-68
2021/11/08 12:14:14;;;;;;;10.32;2.50;;;;;;;-142.75;80.45;77637.34;5012129;28;20043;-67
2021/11/08 12:17:03;;;;;;;11.60;2.50;;;;;;;-142.75;79.95;77639.31;5013249;28;20260;-67
2021/11/08 12:19:33;;;;;;;18.45;3.33;;;;;;;-142.75;81.31;77645.22;5030589;28;20108;-67
2021/11/08 12:22:20;;;;;;;13.02;2.55;;;;;;;-142.75;79.71;77649.16;5029846;28;20080;-67
2021/11/08 12:25:03;;;;;;;14.55;2.67;;;;;;;-142.75;79.87;77641.28;5031063;28;20025;-67
2021/11/08 12:27:37;;;;;;;15.93;2.38;;;;;;;-142.75;80.41;77637.34;5012877;28;20028;-68
2021/11/08 12:30:08;;;;;;;11.27;2.05;;;;;;;-142.75;79.81;77633.41;5029844;28;20057;-67
2021/11/08 12:32:42;;;;;;;14.00;2.28;;;;;;;-142.75;80.01;77645.22;5030476;28;20087;-68
2021/11/08 12:35:14;;;;;;;12.88;2.72;;;;;;;-142.75;79.41;77643.25;5030460;28;20033;-67
2021/11/08 12:37:39;;;;;;;18.88;2.67;;;;;;;-142.75;79.08;77637.34;5030536;28;20129;-67
2021/11/08 12:40:06;;;;;;;10.85;2.47;;;;;;;-142.75;79.72;77625.53;5029620;28;20530;-67
2021/11/08 12:42:43;;;;;;;9.82;2.20;;;;;;;-142.75;79.90;77625.53;5029977;28;20076;-67
2021/11/08 12:45:23;;;;;;;20.42;2.78;;;;;;;-142.75;79.57;77625.53;5030121;28;20654;-68
2021/11/08 12:48:18;;;;;;;15.35;2.55;;;;;;;-142.75;79.86;77633.41;5030302;28;20033;-68
2021/11/08 12:50:49;;;;;;;12.98;2.58;;;;;;;-142.75;80.44;77635.38;5012094;28;20515;-68
2021/11/08 12:53:22;;;;;;;17.02;2.80;;;;;;;-142.75;80.70;77625.53;5046768;28;20033;-68